sensor_id;sensor_type;location;lat;lon;timestamp;P1;durP1;ratioP1;P2;durP2;ratioP2
23702;SDS011;12030;50.376;8.762;2024-02-21T00:00:43;6.13;;;3.50;;
23702;SDS011;12030;50.376;8.762;2024-02-21T00:03:08;9.87;;;4.47;;
23702;SDS011;12030;50.376;8.762;2024-02-21T00:05:34;10.93;;;4.13;;
23702;SDS011;12030;50.376;8.762;2024-02-21T00:07:59;9.03;;;3.90;;
23702;SDS011;12030;50.376;8.762;2024-02-21T00:10:25;8.57;;;4.03;;
23702;SDS011;12030;50.376;8.762;2024-02-21T00:12:51;5.77;;;3.37;;
23702;SDS011;12030;50.376;8.762;2024-02-21T00:15:17;5.50;;;3.43;;
23702;SDS011;12030;50.376;8.762;2024-02-21T00:17:43;9.77;;;4.83;;
23702;SDS011;12030;50.376;8.762;2024-02-21T00:20:09;8.43;;;3.20;;
23702;SDS011;12030;50.376;8.762;2024-02-21T00:22:35;9.73;;;3.37;;
23702;SDS011;12030;50.376;8.762;2024-02-21T00:25:01;12.00;;;3.43;;
23702;SDS011;12030;50.376;8.762;2024-02-21T00:27:27;11.07;;;3.10;;
23702;SDS011;12030;50.376;8.762;2024-02-21T00:29:53;11.63;;;3.70;;
23702;SDS011;12030;50.376;8.762;2024-02-21T00:32:18;7.40;;;3.17;;
23702;SDS011;12030;50.376;8.762;2024-02-21T00:34:44;13.57;;;4.13;;
23702;SDS011;12030;50.376;8.762;2024-02-21T00:37:09;9.00;;;3.53;;
23702;SDS011;12030;50.376;8.762;2024-02-21T00:39:35;9.87;;;3.67;;
23702;SDS011;12030;50.376;8.762;2024-02-21T00:42:02;9.93;;;3.73;;
23702;SDS011;12030;50.376;8.762;2024-02-21T00:44:27;7.87;;;3.53;;
23702;SDS011;12030;50.376;8.762;2024-02-21T00:46:53;6.63;;;3.33;;
23702;SDS011;12030;50.376;8.762;2024-02-21T00:49:18;9.40;;;3.50;;
23702;SDS011;12030;50.376;8.762;2024-02-21T00:51:44;8.53;;;4.13;;
23702;SDS011;12030;50.376;8.762;2024-02-21T00:54:09;10.33;;;3.80;;
23702;SDS011;12030;50.376;8.762;2024-02-21T00:56:35;12.53;;;4.07;;
23702;SDS011;12030;50.376;8.762;2024-02-21T00:59:01;10.87;;;3.97;;
23702;SDS011;12030;50.376;8.762;2024-02-21T01:01:26;10.00;;;4.03;;
23702;SDS011;12030;50.376;8.762;2024-02-21T01:03:52;8.87;;;3.77;;
23702;SDS011;12030;50.376;8.762;2024-02-21T01:06:18;6.20;;;3.13;;
23702;SDS011;12030;50.376;8.762;2024-02-21T01:08:46;9.27;;;3.63;;
23702;SDS011;12030;50.376;8.762;2024-02-21T01:11:12;7.33;;;3.53;;
23702;SDS011;12030;50.376;8.762;2024-02-21T01:13:38;7.50;;;4.00;;
23702;SDS011;12030;50.376;8.762;2024-02-21T01:16:04;9.90;;;4.00;;
23702;SDS011;12030;50.376;8.762;2024-02-21T01:18:31;11.10;;;4.10;;
23702;SDS011;12030;50.376;8.762;2024-02-21T01:20:57;10.97;;;3.80;;
23702;SDS011;12030;50.376;8.762;2024-02-21T01:23:22;11.80;;;4.13;;
23702;SDS011;12030;50.376;8.762;2024-02-21T01:25:48;8.97;;;3.63;;
23702;SDS011;12030;50.376;8.762;2024-02-21T01:28:14;8.90;;;3.53;;
23702;SDS011;12030;50.376;8.762;2024-02-21T01:30:40;8.83;;;4.13;;
23702;SDS011;12030;50.376;8.762;2024-02-21T01:33:05;10.30;;;3.60;;
23702;SDS011;12030;50.376;8.762;2024-02-21T01:35:31;6.73;;;3.50;;
23702;SDS011;12030;50.376;8.762;2024-02-21T01:37:56;9.90;;;3.80;;
23702;SDS011;12030;50.376;8.762;2024-02-21T01:40:22;13.00;;;4.27;;
23702;SDS011;12030;50.376;8.762;2024-02-21T01:42:47;9.20;;;3.80;;
23702;SDS011;12030;50.376;8.762;2024-02-21T01:45:13;10.73;;;3.60;;
23702;SDS011;12030;50.376;8.762;2024-02-21T01:47:39;9.10;;;3.87;;
23702;SDS011;12030;50.376;8.762;2024-02-21T01:50:05;9.27;;;4.33;;
23702;SDS011;12030;50.376;8.762;2024-02-21T01:52:31;8.43;;;3.90;;
23702;SDS011;12030;50.376;8.762;2024-02-21T01:54:59;6.43;;;3.63;;
23702;SDS011;12030;50.376;8.762;2024-02-21T01:57:25;11.67;;;4.67;;
23702;SDS011;12030;50.376;8.762;2024-02-21T01:59:51;9.83;;;4.10;;
23702;SDS011;12030;50.376;8.762;2024-02-21T02:02:17;9.20;;;4.00;;
23702;SDS011;12030;50.376;8.762;2024-02-21T02:04:43;12.17;;;3.93;;
23702;SDS011;12030;50.376;8.762;2024-02-21T02:07:10;10.73;;;4.20;;
23702;SDS011;12030;50.376;8.762;2024-02-21T02:09:35;8.60;;;4.70;;
23702;SDS011;12030;50.376;8.762;2024-02-21T02:12:01;11.20;;;4.27;;
23702;SDS011;12030;50.376;8.762;2024-02-21T02:14:27;10.67;;;4.73;;
23702;SDS011;12030;50.376;8.762;2024-02-21T02:16:53;9.03;;;4.00;;
23702;SDS011;12030;50.376;8.762;2024-02-21T02:19:18;9.67;;;4.17;;
23702;SDS011;12030;50.376;8.762;2024-02-21T02:21:49;12.93;;;4.50;;
23702;SDS011;12030;50.376;8.762;2024-02-21T02:24:20;12.77;;;4.80;;
23702;SDS011;12030;50.376;8.762;2024-02-21T02:26:47;8.10;;;3.77;;
23702;SDS011;12030;50.376;8.762;2024-02-21T02:29:12;9.93;;;4.37;;
23702;SDS011;12030;50.376;8.762;2024-02-21T02:31:38;11.77;;;4.80;;
23702;SDS011;12030;50.376;8.762;2024-02-21T02:34:03;13.00;;;4.40;;
23702;SDS011;12030;50.376;8.762;2024-02-21T02:36:30;10.33;;;4.23;;
23702;SDS011;12030;50.376;8.762;2024-02-21T02:38:58;10.33;;;4.60;;
23702;SDS011;12030;50.376;8.762;2024-02-21T02:41:23;11.00;;;4.30;;
23702;SDS011;12030;50.376;8.762;2024-02-21T02:43:49;9.17;;;4.50;;
23702;SDS011;12030;50.376;8.762;2024-02-21T02:46:15;9.87;;;4.37;;
23702;SDS011;12030;50.376;8.762;2024-02-21T02:48:40;10.77;;;4.83;;
23702;SDS011;12030;50.376;8.762;2024-02-21T02:51:06;10.50;;;4.73;;
23702;SDS011;12030;50.376;8.762;2024-02-21T02:53:32;10.93;;;5.23;;
23702;SDS011;12030;50.376;8.762;2024-02-21T02:55:57;7.90;;;4.33;;
23702;SDS011;12030;50.376;8.762;2024-02-21T02:58:23;10.10;;;5.17;;
23702;SDS011;12030;50.376;8.762;2024-02-21T03:00:48;11.97;;;4.93;;
23702;SDS011;12030;50.376;8.762;2024-02-21T03:03:14;13.63;;;5.30;;
23702;SDS011;12030;50.376;8.762;2024-02-21T03:05:39;9.53;;;4.53;;
23702;SDS011;12030;50.376;8.762;2024-02-21T03:08:05;10.93;;;4.57;;
23702;SDS011;12030;50.376;8.762;2024-02-21T03:10:32;14.13;;;4.90;;
23702;SDS011;12030;50.376;8.762;2024-02-21T03:12:58;10.10;;;5.17;;
23702;SDS011;12030;50.376;8.762;2024-02-21T03:15:24;10.67;;;5.27;;
23702;SDS011;12030;50.376;8.762;2024-02-21T03:17:50;8.20;;;4.70;;
23702;SDS011;12030;50.376;8.762;2024-02-21T03:20:15;9.47;;;4.40;;
23702;SDS011;12030;50.376;8.762;2024-02-21T03:22:41;12.87;;;5.40;;
23702;SDS011;12030;50.376;8.762;2024-02-21T03:25:07;12.17;;;5.90;;
23702;SDS011;12030;50.376;8.762;2024-02-21T03:27:34;10.83;;;5.30;;
23702;SDS011;12030;50.376;8.762;2024-02-21T03:29:59;8.70;;;4.63;;
23702;SDS011;12030;50.376;8.762;2024-02-21T03:32:25;11.33;;;5.37;;
23702;SDS011;12030;50.376;8.762;2024-02-21T03:34:50;10.03;;;5.27;;
23702;SDS011;12030;50.376;8.762;2024-02-21T03:37:16;9.13;;;4.93;;
23702;SDS011;12030;50.376;8.762;2024-02-21T03:39:41;11.03;;;4.93;;
23702;SDS011;12030;50.376;8.762;2024-02-21T03:42:07;12.90;;;5.57;;
23702;SDS011;12030;50.376;8.762;2024-02-21T03:44:33;10.40;;;5.03;;
23702;SDS011;12030;50.376;8.762;2024-02-21T03:46:59;10.10;;;5.00;;
23702;SDS011;12030;50.376;8.762;2024-02-21T03:49:25;13.43;;;5.20;;
23702;SDS011;12030;50.376;8.762;2024-02-21T03:51:51;11.67;;;5.40;;
23702;SDS011;12030;50.376;8.762;2024-02-21T03:54:17;11.77;;;5.00;;
23702;SDS011;12030;50.376;8.762;2024-02-21T03:56:43;12.53;;;4.87;;
23702;SDS011;12030;50.376;8.762;2024-02-21T03:59:08;10.03;;;4.67;;
23702;SDS011;12030;50.376;8.762;2024-02-21T04:01:34;8.93;;;4.80;;
23702;SDS011;12030;50.376;8.762;2024-02-21T04:04:00;8.93;;;4.60;;
23702;SDS011;12030;50.376;8.762;2024-02-21T04:06:26;11.43;;;4.80;;
23702;SDS011;12030;50.376;8.762;2024-02-21T04:08:52;12.60;;;5.40;;
23702;SDS011;12030;50.376;8.762;2024-02-21T04:11:17;10.47;;;4.57;;
23702;SDS011;12030;50.376;8.762;2024-02-21T04:13:44;9.80;;;4.93;;
23702;SDS011;12030;50.376;8.762;2024-02-21T04:16:10;8.33;;;4.33;;
23702;SDS011;12030;50.376;8.762;2024-02-21T04:18:35;9.73;;;5.03;;
23702;SDS011;12030;50.376;8.762;2024-02-21T04:21:01;8.07;;;4.50;;
23702;SDS011;12030;50.376;8.762;2024-02-21T04:23:27;9.83;;;4.80;;
23702;SDS011;12030;50.376;8.762;2024-02-21T04:25:52;10.73;;;4.67;;
23702;SDS011;12030;50.376;8.762;2024-02-21T04:28:18;9.63;;;4.97;;
23702;SDS011;12030;50.376;8.762;2024-02-21T04:30:43;9.13;;;4.97;;
23702;SDS011;12030;50.376;8.762;2024-02-21T04:33:09;9.57;;;4.30;;
23702;SDS011;12030;50.376;8.762;2024-02-21T04:35:35;9.13;;;4.73;;
23702;SDS011;12030;50.376;8.762;2024-02-21T04:38:01;10.00;;;4.87;;
23702;SDS011;12030;50.376;8.762;2024-02-21T04:40:27;8.87;;;4.70;;
23702;SDS011;12030;50.376;8.762;2024-02-21T04:42:52;10.27;;;5.10;;
23702;SDS011;12030;50.376;8.762;2024-02-21T04:45:19;9.63;;;4.17;;
23702;SDS011;12030;50.376;8.762;2024-02-21T04:47:44;9.73;;;4.07;;
23702;SDS011;12030;50.376;8.762;2024-02-21T04:50:10;8.37;;;4.33;;
23702;SDS011;12030;50.376;8.762;2024-02-21T04:52:35;8.43;;;4.23;;
23702;SDS011;12030;50.376;8.762;2024-02-21T04:55:01;6.40;;;3.93;;
23702;SDS011;12030;50.376;8.762;2024-02-21T04:57:26;7.83;;;3.83;;
23702;SDS011;12030;50.376;8.762;2024-02-21T04:59:52;10.70;;;4.33;;
23702;SDS011;12030;50.376;8.762;2024-02-21T05:02:17;10.47;;;4.90;;
23702;SDS011;12030;50.376;8.762;2024-02-21T05:04:45;8.17;;;4.50;;
23702;SDS011;12030;50.376;8.762;2024-02-21T05:07:10;10.30;;;4.37;;
23702;SDS011;12030;50.376;8.762;2024-02-21T05:09:36;11.60;;;4.80;;
23702;SDS011;12030;50.376;8.762;2024-02-21T05:12:02;13.97;;;5.07;;
23702;SDS011;12030;50.376;8.762;2024-02-21T05:14:28;9.77;;;4.07;;
23702;SDS011;12030;50.376;8.762;2024-02-21T05:16:54;10.37;;;4.60;;
23702;SDS011;12030;50.376;8.762;2024-02-21T05:19:19;7.87;;;4.17;;
23702;SDS011;12030;50.376;8.762;2024-02-21T05:21:45;7.67;;;3.87;;
23702;SDS011;12030;50.376;8.762;2024-02-21T05:24:10;11.70;;;4.77;;
23702;SDS011;12030;50.376;8.762;2024-02-21T05:26:36;9.20;;;4.33;;
23702;SDS011;12030;50.376;8.762;2024-02-21T05:29:02;8.43;;;4.03;;
23702;SDS011;12030;50.376;8.762;2024-02-21T05:31:35;7.80;;;4.20;;
23702;SDS011;12030;50.376;8.762;2024-02-21T05:34:20;10.93;;;4.60;;
23702;SDS011;12030;50.376;8.762;2024-02-21T05:36:47;6.93;;;4.17;;
23702;SDS011;12030;50.376;8.762;2024-02-21T05:39:14;8.83;;;4.27;;
23702;SDS011;12030;50.376;8.762;2024-02-21T05:41:40;12.27;;;4.20;;
23702;SDS011;12030;50.376;8.762;2024-02-21T05:44:05;8.80;;;4.20;;
23702;SDS011;12030;50.376;8.762;2024-02-21T05:46:32;8.43;;;4.23;;
23702;SDS011;12030;50.376;8.762;2024-02-21T05:48:57;8.97;;;4.50;;
23702;SDS011;12030;50.376;8.762;2024-02-21T05:51:23;10.03;;;4.83;;
23702;SDS011;12030;50.376;8.762;2024-02-21T05:53:48;11.43;;;4.40;;
23702;SDS011;12030;50.376;8.762;2024-02-21T05:56:14;10.27;;;3.90;;
23702;SDS011;12030;50.376;8.762;2024-02-21T05:58:40;8.30;;;4.20;;
23702;SDS011;12030;50.376;8.762;2024-02-21T06:01:05;9.47;;;4.27;;
23702;SDS011;12030;50.376;8.762;2024-02-21T06:03:32;9.63;;;4.40;;
23702;SDS011;12030;50.376;8.762;2024-02-21T06:05:59;8.03;;;4.33;;
23702;SDS011;12030;50.376;8.762;2024-02-21T06:08:25;9.50;;;4.37;;
23702;SDS011;12030;50.376;8.762;2024-02-21T06:10:50;6.50;;;3.73;;
23702;SDS011;12030;50.376;8.762;2024-02-21T06:13:23;7.57;;;3.83;;
23702;SDS011;12030;50.376;8.762;2024-02-21T06:15:48;12.43;;;4.43;;
23702;SDS011;12030;50.376;8.762;2024-02-21T06:18:15;10.20;;;4.33;;
23702;SDS011;12030;50.376;8.762;2024-02-21T06:20:42;9.67;;;4.13;;
23702;SDS011;12030;50.376;8.762;2024-02-21T06:23:08;9.23;;;4.70;;
23702;SDS011;12030;50.376;8.762;2024-02-21T06:25:33;8.27;;;4.17;;
23702;SDS011;12030;50.376;8.762;2024-02-21T06:27:59;9.43;;;4.77;;
23702;SDS011;12030;50.376;8.762;2024-02-21T06:30:24;11.07;;;4.47;;
23702;SDS011;12030;50.376;8.762;2024-02-21T06:32:50;11.40;;;4.63;;
23702;SDS011;12030;50.376;8.762;2024-02-21T06:35:16;10.13;;;4.57;;
23702;SDS011;12030;50.376;8.762;2024-02-21T06:37:42;9.27;;;4.43;;
23702;SDS011;12030;50.376;8.762;2024-02-21T06:40:07;9.63;;;4.87;;
23702;SDS011;12030;50.376;8.762;2024-02-21T06:42:33;11.10;;;4.73;;
23702;SDS011;12030;50.376;8.762;2024-02-21T06:44:59;9.90;;;5.33;;
23702;SDS011;12030;50.376;8.762;2024-02-21T06:47:24;12.43;;;5.53;;
23702;SDS011;12030;50.376;8.762;2024-02-21T06:49:50;10.70;;;5.87;;
23702;SDS011;12030;50.376;8.762;2024-02-21T06:52:19;8.30;;;4.80;;
23702;SDS011;12030;50.376;8.762;2024-02-21T06:54:45;9.27;;;4.97;;
23702;SDS011;12030;50.376;8.762;2024-02-21T06:57:12;9.83;;;4.93;;
23702;SDS011;12030;50.376;8.762;2024-02-21T06:59:38;9.50;;;5.57;;
23702;SDS011;12030;50.376;8.762;2024-02-21T07:02:04;11.63;;;5.73;;
23702;SDS011;12030;50.376;8.762;2024-02-21T07:04:30;10.20;;;5.30;;
23702;SDS011;12030;50.376;8.762;2024-02-21T07:06:55;14.03;;;5.63;;
23702;SDS011;12030;50.376;8.762;2024-02-21T07:09:21;14.03;;;5.90;;
23702;SDS011;12030;50.376;8.762;2024-02-21T07:11:46;10.03;;;5.03;;
23702;SDS011;12030;50.376;8.762;2024-02-21T07:14:13;12.23;;;5.70;;
23702;SDS011;12030;50.376;8.762;2024-02-21T07:16:39;12.23;;;5.57;;
23702;SDS011;12030;50.376;8.762;2024-02-21T07:19:05;11.57;;;5.57;;
23702;SDS011;12030;50.376;8.762;2024-02-21T07:21:31;9.70;;;5.33;;
23702;SDS011;12030;50.376;8.762;2024-02-21T07:23:56;12.30;;;5.97;;
23702;SDS011;12030;50.376;8.762;2024-02-21T07:26:22;10.93;;;5.50;;
23702;SDS011;12030;50.376;8.762;2024-02-21T07:28:47;8.87;;;4.70;;
23702;SDS011;12030;50.376;8.762;2024-02-21T07:31:13;8.77;;;5.30;;
23702;SDS011;12030;50.376;8.762;2024-02-21T07:33:39;11.60;;;5.97;;
23702;SDS011;12030;50.376;8.762;2024-02-21T07:36:09;13.87;;;6.17;;
23702;SDS011;12030;50.376;8.762;2024-02-21T07:38:36;8.07;;;5.10;;
23702;SDS011;12030;50.376;8.762;2024-02-21T07:41:01;12.17;;;5.40;;
23702;SDS011;12030;50.376;8.762;2024-02-21T07:43:29;10.70;;;5.40;;
23702;SDS011;12030;50.376;8.762;2024-02-21T07:45:54;10.10;;;5.90;;
23702;SDS011;12030;50.376;8.762;2024-02-21T07:48:20;9.93;;;5.33;;
23702;SDS011;12030;50.376;8.762;2024-02-21T07:50:49;11.17;;;5.30;;
23702;SDS011;12030;50.376;8.762;2024-02-21T07:53:15;10.83;;;5.03;;
23702;SDS011;12030;50.376;8.762;2024-02-21T07:55:41;8.50;;;4.87;;
23702;SDS011;12030;50.376;8.762;2024-02-21T07:58:06;11.73;;;4.93;;
23702;SDS011;12030;50.376;8.762;2024-02-21T08:00:32;11.50;;;5.10;;
23702;SDS011;12030;50.376;8.762;2024-02-21T08:02:58;9.00;;;4.73;;
23702;SDS011;12030;50.376;8.762;2024-02-21T08:05:23;9.43;;;4.93;;
23702;SDS011;12030;50.376;8.762;2024-02-21T08:07:49;8.80;;;4.93;;
23702;SDS011;12030;50.376;8.762;2024-02-21T08:10:15;10.53;;;5.23;;
23702;SDS011;12030;50.376;8.762;2024-02-21T08:12:40;9.87;;;5.13;;
23702;SDS011;12030;50.376;8.762;2024-02-21T08:15:06;10.03;;;5.30;;
23702;SDS011;12030;50.376;8.762;2024-02-21T08:17:36;8.47;;;4.90;;
23702;SDS011;12030;50.376;8.762;2024-02-21T08:20:03;9.60;;;5.20;;
23702;SDS011;12030;50.376;8.762;2024-02-21T08:22:29;7.87;;;4.33;;
23702;SDS011;12030;50.376;8.762;2024-02-21T08:24:55;10.67;;;5.00;;
23702;SDS011;12030;50.376;8.762;2024-02-21T08:27:21;11.33;;;4.40;;
23702;SDS011;12030;50.376;8.762;2024-02-21T08:29:46;8.73;;;4.43;;
23702;SDS011;12030;50.376;8.762;2024-02-21T08:32:12;8.27;;;4.27;;
23702;SDS011;12030;50.376;8.762;2024-02-21T08:34:37;8.07;;;4.43;;
23702;SDS011;12030;50.376;8.762;2024-02-21T08:37:03;12.53;;;4.13;;
23702;SDS011;12030;50.376;8.762;2024-02-21T08:39:29;8.43;;;4.13;;
23702;SDS011;12030;50.376;8.762;2024-02-21T08:41:55;7.90;;;3.87;;
23702;SDS011;12030;50.376;8.762;2024-02-21T08:44:22;8.87;;;3.97;;
23702;SDS011;12030;50.376;8.762;2024-02-21T08:46:50;6.63;;;4.47;;
23702;SDS011;12030;50.376;8.762;2024-02-21T08:49:16;9.83;;;4.10;;
23702;SDS011;12030;50.376;8.762;2024-02-21T08:51:42;7.37;;;3.67;;
23702;SDS011;12030;50.376;8.762;2024-02-21T08:54:08;6.63;;;3.60;;
23702;SDS011;12030;50.376;8.762;2024-02-21T08:56:33;8.63;;;3.80;;
23702;SDS011;12030;50.376;8.762;2024-02-21T08:59:00;9.80;;;4.23;;
23702;SDS011;12030;50.376;8.762;2024-02-21T09:01:26;7.10;;;3.60;;
23702;SDS011;12030;50.376;8.762;2024-02-21T09:03:51;7.73;;;4.23;;
23702;SDS011;12030;50.376;8.762;2024-02-21T09:06:18;12.63;;;4.20;;
23702;SDS011;12030;50.376;8.762;2024-02-21T09:08:44;8.67;;;4.53;;
23702;SDS011;12030;50.376;8.762;2024-02-21T09:11:10;7.30;;;4.30;;
23702;SDS011;12030;50.376;8.762;2024-02-21T09:13:36;7.03;;;3.80;;
23702;SDS011;12030;50.376;8.762;2024-02-21T09:16:01;7.40;;;4.33;;
23702;SDS011;12030;50.376;8.762;2024-02-21T09:18:28;8.67;;;4.70;;
23702;SDS011;12030;50.376;8.762;2024-02-21T09:20:53;6.90;;;4.63;;
23702;SDS011;12030;50.376;8.762;2024-02-21T09:23:19;7.43;;;4.47;;
23702;SDS011;12030;50.376;8.762;2024-02-21T09:25:45;8.03;;;4.17;;
23702;SDS011;12030;50.376;8.762;2024-02-21T09:28:11;6.90;;;3.97;;
23702;SDS011;12030;50.376;8.762;2024-02-21T09:30:38;8.07;;;4.57;;
23702;SDS011;12030;50.376;8.762;2024-02-21T09:33:03;10.67;;;5.07;;
23702;SDS011;12030;50.376;8.762;2024-02-21T09:35:30;6.90;;;4.67;;
23702;SDS011;12030;50.376;8.762;2024-02-21T09:37:55;8.40;;;4.70;;
23702;SDS011;12030;50.376;8.762;2024-02-21T09:40:21;7.20;;;4.20;;
23702;SDS011;12030;50.376;8.762;2024-02-21T09:42:47;10.87;;;4.67;;
23702;SDS011;12030;50.376;8.762;2024-02-21T09:45:20;8.07;;;4.40;;
23702;SDS011;12030;50.376;8.762;2024-02-21T09:50:31;8.23;;;4.20;;
23702;SDS011;12030;50.376;8.762;2024-02-21T09:52:58;9.53;;;4.17;;
23702;SDS011;12030;50.376;8.762;2024-02-21T09:55:27;7.20;;;3.73;;
23702;SDS011;12030;50.376;8.762;2024-02-21T09:57:54;8.93;;;4.17;;
23702;SDS011;12030;50.376;8.762;2024-02-21T10:00:22;6.73;;;3.67;;
23702;SDS011;12030;50.376;8.762;2024-02-21T10:02:48;6.33;;;3.43;;
23702;SDS011;12030;50.376;8.762;2024-02-21T10:05:17;7.00;;;3.97;;
23702;SDS011;12030;50.376;8.762;2024-02-21T10:07:43;8.27;;;3.60;;
23702;SDS011;12030;50.376;8.762;2024-02-21T10:10:08;7.80;;;3.67;;
23702;SDS011;12030;50.376;8.762;2024-02-21T10:12:35;7.03;;;3.83;;
23702;SDS011;12030;50.376;8.762;2024-02-21T10:15:04;6.00;;;3.70;;
23702;SDS011;12030;50.376;8.762;2024-02-21T10:17:31;9.07;;;4.37;;
23702;SDS011;12030;50.376;8.762;2024-02-21T10:20:09;9.93;;;4.90;;
23702;SDS011;12030;50.376;8.762;2024-02-21T10:22:37;7.70;;;4.80;;
23702;SDS011;12030;50.376;8.762;2024-02-21T10:25:13;8.63;;;4.80;;
23702;SDS011;12030;50.376;8.762;2024-02-21T10:27:39;9.60;;;5.13;;
23702;SDS011;12030;50.376;8.762;2024-02-21T10:30:06;13.43;;;6.40;;
23702;SDS011;12030;50.376;8.762;2024-02-21T10:32:33;10.03;;;5.90;;
23702;SDS011;12030;50.376;8.762;2024-02-21T10:35:02;9.27;;;6.33;;
23702;SDS011;12030;50.376;8.762;2024-02-21T10:37:32;9.63;;;6.90;;
23702;SDS011;12030;50.376;8.762;2024-02-21T10:39:57;10.70;;;7.37;;
23702;SDS011;12030;50.376;8.762;2024-02-21T10:42:23;10.83;;;6.60;;
23702;SDS011;12030;50.376;8.762;2024-02-21T10:44:55;10.63;;;6.40;;
23702;SDS011;12030;50.376;8.762;2024-02-21T10:47:29;9.97;;;5.77;;
23702;SDS011;12030;50.376;8.762;2024-02-21T10:49:57;10.07;;;5.43;;
23702;SDS011;12030;50.376;8.762;2024-02-21T10:52:31;12.63;;;5.40;;
23702;SDS011;12030;50.376;8.762;2024-02-21T10:55:04;8.23;;;4.33;;
23702;SDS011;12030;50.376;8.762;2024-02-21T10:57:41;10.27;;;4.93;;
23702;SDS011;12030;50.376;8.762;2024-02-21T11:00:08;10.00;;;4.57;;
23702;SDS011;12030;50.376;8.762;2024-02-21T11:02:37;11.17;;;4.80;;
23702;SDS011;12030;50.376;8.762;2024-02-21T11:05:04;9.03;;;4.47;;
23702;SDS011;12030;50.376;8.762;2024-02-21T11:07:33;9.97;;;4.10;;
23702;SDS011;12030;50.376;8.762;2024-02-21T11:10:01;8.70;;;4.10;;
23702;SDS011;12030;50.376;8.762;2024-02-21T11:12:28;7.97;;;3.97;;
23702;SDS011;12030;50.376;8.762;2024-02-21T11:15:03;8.43;;;4.17;;
23702;SDS011;12030;50.376;8.762;2024-02-21T11:17:32;12.83;;;4.43;;
23702;SDS011;12030;50.376;8.762;2024-02-21T11:19:57;6.53;;;3.43;;
23702;SDS011;12030;50.376;8.762;2024-02-21T11:22:25;7.60;;;3.53;;
23702;SDS011;12030;50.376;8.762;2024-02-21T11:24:54;6.13;;;3.53;;
23702;SDS011;12030;50.376;8.762;2024-02-21T11:27:21;7.93;;;3.57;;
23702;SDS011;12030;50.376;8.762;2024-02-21T11:29:57;5.43;;;3.23;;
23702;SDS011;12030;50.376;8.762;2024-02-21T11:32:23;7.93;;;3.27;;
23702;SDS011;12030;50.376;8.762;2024-02-21T11:34:56;5.23;;;3.03;;
23702;SDS011;12030;50.376;8.762;2024-02-21T11:37:27;8.00;;;3.63;;
23702;SDS011;12030;50.376;8.762;2024-02-21T11:39:54;5.90;;;3.23;;
23702;SDS011;12030;50.376;8.762;2024-02-21T11:42:20;6.70;;;3.00;;
23702;SDS011;12030;50.376;8.762;2024-02-21T11:44:46;5.37;;;2.97;;
23702;SDS011;12030;50.376;8.762;2024-02-21T11:47:11;5.80;;;3.00;;
23702;SDS011;12030;50.376;8.762;2024-02-21T11:49:43;4.00;;;2.43;;
23702;SDS011;12030;50.376;8.762;2024-02-21T11:52:15;8.43;;;2.70;;
23702;SDS011;12030;50.376;8.762;2024-02-21T11:54:41;7.37;;;2.37;;
23702;SDS011;12030;50.376;8.762;2024-02-21T11:57:07;5.07;;;2.47;;
23702;SDS011;12030;50.376;8.762;2024-02-21T11:59:33;9.03;;;3.10;;
23702;SDS011;12030;50.376;8.762;2024-02-21T12:01:59;6.20;;;2.60;;
23702;SDS011;12030;50.376;8.762;2024-02-21T12:04:25;4.70;;;2.43;;
23702;SDS011;12030;50.376;8.762;2024-02-21T12:06:54;7.87;;;2.97;;
23702;SDS011;12030;50.376;8.762;2024-02-21T12:09:22;9.47;;;2.70;;
23702;SDS011;12030;50.376;8.762;2024-02-21T12:11:56;5.43;;;2.37;;
23702;SDS011;12030;50.376;8.762;2024-02-21T12:14:24;9.33;;;3.43;;
23702;SDS011;12030;50.376;8.762;2024-02-21T12:16:50;7.03;;;3.00;;
23702;SDS011;12030;50.376;8.762;2024-02-21T12:19:15;7.37;;;2.70;;
23702;SDS011;12030;50.376;8.762;2024-02-21T12:21:42;5.33;;;2.33;;
23702;SDS011;12030;50.376;8.762;2024-02-21T12:24:20;6.20;;;2.40;;
23702;SDS011;12030;50.376;8.762;2024-02-21T12:26:47;4.53;;;2.53;;
23702;SDS011;12030;50.376;8.762;2024-02-21T12:29:13;7.80;;;2.57;;
23702;SDS011;12030;50.376;8.762;2024-02-21T12:31:39;6.80;;;2.50;;
23702;SDS011;12030;50.376;8.762;2024-02-21T12:34:05;8.17;;;2.73;;
23702;SDS011;12030;50.376;8.762;2024-02-21T12:36:31;5.90;;;2.33;;
23702;SDS011;12030;50.376;8.762;2024-02-21T12:38:57;9.73;;;2.73;;
23702;SDS011;12030;50.376;8.762;2024-02-21T12:41:23;7.67;;;2.90;;
23702;SDS011;12030;50.376;8.762;2024-02-21T12:43:51;5.73;;;2.70;;
23702;SDS011;12030;50.376;8.762;2024-02-21T12:46:17;5.50;;;2.20;;
23702;SDS011;12030;50.376;8.762;2024-02-21T12:48:43;5.17;;;2.53;;
23702;SDS011;12030;50.376;8.762;2024-02-21T12:51:08;7.23;;;2.50;;
23702;SDS011;12030;50.376;8.762;2024-02-21T12:53:34;5.60;;;2.50;;
23702;SDS011;12030;50.376;8.762;2024-02-21T12:56:00;5.87;;;2.60;;
23702;SDS011;12030;50.376;8.762;2024-02-21T12:58:25;4.73;;;2.57;;
23702;SDS011;12030;50.376;8.762;2024-02-21T13:00:51;8.47;;;2.67;;
23702;SDS011;12030;50.376;8.762;2024-02-21T13:03:17;9.50;;;2.40;;
23702;SDS011;12030;50.376;8.762;2024-02-21T13:05:43;6.43;;;2.53;;
23702;SDS011;12030;50.376;8.762;2024-02-21T13:08:08;6.23;;;2.40;;
23702;SDS011;12030;50.376;8.762;2024-02-21T13:10:34;6.67;;;2.63;;
23702;SDS011;12030;50.376;8.762;2024-02-21T13:13:00;7.70;;;2.40;;
23702;SDS011;12030;50.376;8.762;2024-02-21T13:15:27;6.73;;;2.47;;
23702;SDS011;12030;50.376;8.762;2024-02-21T13:17:58;4.33;;;2.53;;
23702;SDS011;12030;50.376;8.762;2024-02-21T13:20:25;7.47;;;2.40;;
23702;SDS011;12030;50.376;8.762;2024-02-21T13:22:51;7.60;;;2.47;;
23702;SDS011;12030;50.376;8.762;2024-02-21T13:25:17;5.97;;;2.37;;
23702;SDS011;12030;50.376;8.762;2024-02-21T13:27:45;5.73;;;2.30;;
23702;SDS011;12030;50.376;8.762;2024-02-21T13:30:11;6.13;;;2.10;;
23702;SDS011;12030;50.376;8.762;2024-02-21T13:32:37;6.87;;;2.80;;
23702;SDS011;12030;50.376;8.762;2024-02-21T13:35:03;7.70;;;2.10;;
23702;SDS011;12030;50.376;8.762;2024-02-21T13:37:29;6.13;;;2.40;;
23702;SDS011;12030;50.376;8.762;2024-02-21T13:39:54;5.07;;;2.03;;
23702;SDS011;12030;50.376;8.762;2024-02-21T13:42:20;6.53;;;2.43;;
23702;SDS011;12030;50.376;8.762;2024-02-21T13:44:46;7.30;;;2.60;;
23702;SDS011;12030;50.376;8.762;2024-02-21T13:47:14;7.00;;;2.13;;
23702;SDS011;12030;50.376;8.762;2024-02-21T13:49:40;6.50;;;2.17;;
23702;SDS011;12030;50.376;8.762;2024-02-21T13:52:06;7.60;;;2.17;;
23702;SDS011;12030;50.376;8.762;2024-02-21T13:54:32;8.13;;;2.67;;
23702;SDS011;12030;50.376;8.762;2024-02-21T13:56:57;8.13;;;2.30;;
23702;SDS011;12030;50.376;8.762;2024-02-21T13:59:23;5.73;;;2.50;;
23702;SDS011;12030;50.376;8.762;2024-02-21T14:01:48;6.00;;;2.47;;
23702;SDS011;12030;50.376;8.762;2024-02-21T14:04:14;6.37;;;2.30;;
23702;SDS011;12030;50.376;8.762;2024-02-21T14:06:39;5.97;;;2.37;;
23702;SDS011;12030;50.376;8.762;2024-02-21T14:09:08;5.23;;;2.73;;
23702;SDS011;12030;50.376;8.762;2024-02-21T14:11:34;7.93;;;3.50;;
23702;SDS011;12030;50.376;8.762;2024-02-21T14:14:00;6.50;;;2.40;;
23702;SDS011;12030;50.376;8.762;2024-02-21T14:16:26;10.57;;;2.87;;
23702;SDS011;12030;50.376;8.762;2024-02-21T14:18:51;7.50;;;2.30;;
23702;SDS011;12030;50.376;8.762;2024-02-21T14:21:19;5.07;;;2.27;;
23702;SDS011;12030;50.376;8.762;2024-02-21T14:23:44;7.43;;;2.63;;
23702;SDS011;12030;50.376;8.762;2024-02-21T14:26:10;3.57;;;2.20;;
23702;SDS011;12030;50.376;8.762;2024-02-21T14:28:37;8.70;;;2.40;;
23702;SDS011;12030;50.376;8.762;2024-02-21T14:31:02;5.77;;;2.20;;
23702;SDS011;12030;50.376;8.762;2024-02-21T14:33:30;6.73;;;2.23;;
23702;SDS011;12030;50.376;8.762;2024-02-21T14:35:56;6.23;;;1.83;;
23702;SDS011;12030;50.376;8.762;2024-02-21T14:38:22;7.53;;;2.30;;
23702;SDS011;12030;50.376;8.762;2024-02-21T14:40:47;5.00;;;2.30;;